sensor_id;sensor_type;location;lat;lon;timestamp;P1;durP1;ratioP1;P2;durP2;ratioP2
40150;SDS011;25866;52.420;10.640;2023-06-26T00:01:54;5.90;;;4.55;;
40150;SDS011;25866;52.420;10.640;2023-06-26T00:04:20;7.82;;;4.05;;
40150;SDS011;25866;52.420;10.640;2023-06-26T00:06:49;5.03;;;4.53;;
40150;SDS011;25866;52.420;10.640;2023-06-26T00:09:15;4.80;;;4.30;;
40150;SDS011;25866;52.420;10.640;2023-06-26T00:11:41;5.43;;;4.22;;
40150;SDS011;25866;52.420;10.640;2023-06-26T00:14:06;5.80;;;4.40;;
40150;SDS011;25866;52.420;10.640;2023-06-26T00:16:32;5.10;;;4.10;;
40150;SDS011;25866;52.420;10.640;2023-06-26T00:18:58;6.30;;;4.38;;
40150;SDS011;25866;52.420;10.640;2023-06-26T00:21:26;7.63;;;4.32;;
40150;SDS011;25866;52.420;10.640;2023-06-26T00:23:52;5.53;;;4.22;;
40150;SDS011;25866;52.420;10.640;2023-06-26T00:26:18;6.07;;;4.30;;
40150;SDS011;25866;52.420;10.640;2023-06-26T00:28:44;7.80;;;4.20;;
40150;SDS011;25866;52.420;10.640;2023-06-26T00:31:10;8.23;;;4.18;;
40150;SDS011;25866;52.420;10.640;2023-06-26T00:33:36;4.90;;;4.30;;
40150;SDS011;25866;52.420;10.640;2023-06-26T00:36:01;5.40;;;4.38;;
40150;SDS011;25866;52.420;10.640;2023-06-26T00:38:28;5.30;;;4.32;;
40150;SDS011;25866;52.420;10.640;2023-06-26T00:40:57;5.55;;;4.50;;
40150;SDS011;25866;52.420;10.640;2023-06-26T00:43:23;4.80;;;4.38;;
40150;SDS011;25866;52.420;10.640;2023-06-26T00:45:49;5.97;;;4.50;;
40150;SDS011;25866;52.420;10.640;2023-06-26T00:48:14;6.85;;;4.32;;
40150;SDS011;25866;52.420;10.640;2023-06-26T00:50:41;8.07;;;4.38;;
40150;SDS011;25866;52.420;10.640;2023-06-26T00:53:08;5.97;;;4.72;;
40150;SDS011;25866;52.420;10.640;2023-06-26T00:55:35;4.78;;;3.95;;
40150;SDS011;25866;52.420;10.640;2023-06-26T00:58:01;6.15;;;4.47;;
40150;SDS011;25866;52.420;10.640;2023-06-26T01:00:29;9.13;;;4.72;;
40150;SDS011;25866;52.420;10.640;2023-06-26T01:02:55;5.03;;;4.53;;
40150;SDS011;25866;52.420;10.640;2023-06-26T01:05:24;5.25;;;4.75;;
40150;SDS011;25866;52.420;10.640;2023-06-26T01:07:51;8.07;;;4.53;;
40150;SDS011;25866;52.420;10.640;2023-06-26T01:10:17;7.75;;;5.30;;
40150;SDS011;25866;52.420;10.640;2023-06-26T01:12:46;6.03;;;4.10;;
40150;SDS011;25866;52.420;10.640;2023-06-26T01:15:12;5.45;;;4.60;;
40150;SDS011;25866;52.420;10.640;2023-06-26T01:17:38;6.82;;;4.65;;
40150;SDS011;25866;52.420;10.640;2023-06-26T01:20:12;6.93;;;5.10;;
40150;SDS011;25866;52.420;10.640;2023-06-26T01:22:43;4.68;;;4.18;;
40150;SDS011;25866;52.420;10.640;2023-06-26T01:27:46;9.30;;;4.53;;
40150;SDS011;25866;52.420;10.640;2023-06-26T01:30:17;6.10;;;4.50;;
40150;SDS011;25866;52.420;10.640;2023-06-26T01:32:48;5.47;;;4.40;;
40150;SDS011;25866;52.420;10.640;2023-06-26T01:35:15;5.65;;;4.68;;
40150;SDS011;25866;52.420;10.640;2023-06-26T01:37:41;6.65;;;4.57;;
40150;SDS011;25866;52.420;10.640;2023-06-26T01:40:09;6.90;;;4.75;;
40150;SDS011;25866;52.420;10.640;2023-06-26T01:42:38;5.20;;;4.70;;
40150;SDS011;25866;52.420;10.640;2023-06-26T01:45:12;5.10;;;4.55;;
40150;SDS011;25866;52.420;10.640;2023-06-26T01:47:44;6.60;;;4.32;;
40150;SDS011;25866;52.420;10.640;2023-06-26T01:50:17;7.75;;;4.63;;
40150;SDS011;25866;52.420;10.640;2023-06-26T01:52:58;5.80;;;4.40;;
40150;SDS011;25866;52.420;10.640;2023-06-26T01:55:47;5.57;;;4.30;;
40150;SDS011;25866;52.420;10.640;2023-06-26T01:58:19;5.05;;;4.38;;
40150;SDS011;25866;52.420;10.640;2023-06-26T02:00:50;6.25;;;4.13;;
40150;SDS011;25866;52.420;10.640;2023-06-26T02:03:16;5.32;;;3.90;;
40150;SDS011;25866;52.420;10.640;2023-06-26T02:05:42;4.85;;;4.35;;
40150;SDS011;25866;52.420;10.640;2023-06-26T02:08:09;5.43;;;4.50;;
40150;SDS011;25866;52.420;10.640;2023-06-26T02:10:35;4.95;;;4.25;;
40150;SDS011;25866;52.420;10.640;2023-06-26T02:13:01;4.95;;;4.43;;
40150;SDS011;25866;52.420;10.640;2023-06-26T02:15:27;5.97;;;4.20;;
40150;SDS011;25866;52.420;10.640;2023-06-26T02:17:52;6.85;;;4.55;;
40150;SDS011;25866;52.420;10.640;2023-06-26T02:20:18;6.35;;;4.55;;
40150;SDS011;25866;52.420;10.640;2023-06-26T02:22:44;4.70;;;4.20;;
40150;SDS011;25866;52.420;10.640;2023-06-26T02:25:09;4.50;;;4.07;;
40150;SDS011;25866;52.420;10.640;2023-06-26T02:27:37;4.20;;;3.80;;
40150;SDS011;25866;52.420;10.640;2023-06-26T02:30:03;6.35;;;4.30;;
40150;SDS011;25866;52.420;10.640;2023-06-26T02:32:29;7.90;;;4.65;;
40150;SDS011;25866;52.420;10.640;2023-06-26T02:34:55;5.25;;;4.72;;
40150;SDS011;25866;52.420;10.640;2023-06-26T02:37:21;6.25;;;4.10;;
40150;SDS011;25866;52.420;10.640;2023-06-26T02:39:54;7.32;;;4.22;;
40150;SDS011;25866;52.420;10.640;2023-06-26T02:42:20;9.48;;;4.15;;
40150;SDS011;25866;52.420;10.640;2023-06-26T02:44:45;6.95;;;4.43;;
40150;SDS011;25866;52.420;10.640;2023-06-26T02:47:11;8.35;;;4.55;;
40150;SDS011;25866;52.420;10.640;2023-06-26T02:49:37;6.60;;;4.03;;
40150;SDS011;25866;52.420;10.640;2023-06-26T02:52:03;5.50;;;3.90;;
40150;SDS011;25866;52.420;10.640;2023-06-26T02:54:29;8.85;;;4.25;;
40150;SDS011;25866;52.420;10.640;2023-06-26T02:56:55;5.28;;;4.78;;
40150;SDS011;25866;52.420;10.640;2023-06-26T02:59:20;8.60;;;4.95;;
40150;SDS011;25866;52.420;10.640;2023-06-26T03:01:49;8.50;;;4.80;;
40150;SDS011;25866;52.420;10.640;2023-06-26T03:04:15;5.15;;;4.40;;
40150;SDS011;25866;52.420;10.640;2023-06-26T03:06:42;6.10;;;4.30;;
40150;SDS011;25866;52.420;10.640;2023-06-26T03:09:09;6.70;;;4.60;;
40150;SDS011;25866;52.420;10.640;2023-06-26T03:11:36;6.22;;;4.70;;
40150;SDS011;25866;52.420;10.640;2023-06-26T03:14:01;5.68;;;4.45;;
40150;SDS011;25866;52.420;10.640;2023-06-26T03:16:27;6.63;;;4.53;;
40150;SDS011;25866;52.420;10.640;2023-06-26T03:18:56;5.82;;;4.68;;
40150;SDS011;25866;52.420;10.640;2023-06-26T03:21:22;5.93;;;4.00;;
40150;SDS011;25866;52.420;10.640;2023-06-26T03:23:47;5.97;;;4.38;;
40150;SDS011;25866;52.420;10.640;2023-06-26T03:26:21;6.90;;;4.53;;
40150;SDS011;25866;52.420;10.640;2023-06-26T03:28:52;6.53;;;4.55;;
40150;SDS011;25866;52.420;10.640;2023-06-26T03:31:19;6.05;;;4.38;;
40150;SDS011;25866;52.420;10.640;2023-06-26T03:33:45;6.18;;;4.20;;
40150;SDS011;25866;52.420;10.640;2023-06-26T03:36:12;6.95;;;4.40;;
40150;SDS011;25866;52.420;10.640;2023-06-26T03:38:38;6.20;;;4.15;;
40150;SDS011;25866;52.420;10.640;2023-06-26T03:41:06;5.68;;;4.38;;
40150;SDS011;25866;52.420;10.640;2023-06-26T03:43:32;10.25;;;4.47;;
40150;SDS011;25866;52.420;10.640;2023-06-26T03:46:00;8.13;;;4.60;;
40150;SDS011;25866;52.420;10.640;2023-06-26T03:48:26;6.97;;;4.40;;
40150;SDS011;25866;52.420;10.640;2023-06-26T03:50:57;5.28;;;4.75;;
40150;SDS011;25866;52.420;10.640;2023-06-26T03:53:23;7.57;;;4.32;;
40150;SDS011;25866;52.420;10.640;2023-06-26T03:55:49;7.30;;;5.20;;
40150;SDS011;25866;52.420;10.640;2023-06-26T03:58:15;6.65;;;4.28;;
40150;SDS011;25866;52.420;10.640;2023-06-26T04:00:40;5.90;;;4.78;;
40150;SDS011;25866;52.420;10.640;2023-06-26T04:03:06;7.43;;;4.78;;
40150;SDS011;25866;52.420;10.640;2023-06-26T04:05:32;6.50;;;4.80;;
40150;SDS011;25866;52.420;10.640;2023-06-26T04:07:58;8.80;;;5.25;;
40150;SDS011;25866;52.420;10.640;2023-06-26T04:10:24;5.10;;;4.63;;
40150;SDS011;25866;52.420;10.640;2023-06-26T04:12:59;5.88;;;4.60;;
40150;SDS011;25866;52.420;10.640;2023-06-26T04:15:25;7.20;;;4.30;;
40150;SDS011;25866;52.420;10.640;2023-06-26T04:17:51;6.43;;;4.90;;
40150;SDS011;25866;52.420;10.640;2023-06-26T04:20:16;8.63;;;5.20;;
40150;SDS011;25866;52.420;10.640;2023-06-26T04:22:42;8.20;;;5.18;;
40150;SDS011;25866;52.420;10.640;2023-06-26T04:25:08;5.28;;;4.72;;
40150;SDS011;25866;52.420;10.640;2023-06-26T04:27:39;8.88;;;5.00;;
40150;SDS011;25866;52.420;10.640;2023-06-26T04:30:05;6.88;;;4.63;;
40150;SDS011;25866;52.420;10.640;2023-06-26T04:32:32;5.28;;;4.70;;
40150;SDS011;25866;52.420;10.640;2023-06-26T04:34:58;5.85;;;4.13;;
40150;SDS011;25866;52.420;10.640;2023-06-26T04:37:25;6.05;;;4.78;;
40150;SDS011;25866;52.420;10.640;2023-06-26T04:39:51;6.53;;;5.00;;
40150;SDS011;25866;52.420;10.640;2023-06-26T04:42:19;9.05;;;4.70;;
40150;SDS011;25866;52.420;10.640;2023-06-26T04:44:46;6.45;;;5.00;;
40150;SDS011;25866;52.420;10.640;2023-06-26T04:47:12;7.43;;;4.20;;
40150;SDS011;25866;52.420;10.640;2023-06-26T04:49:40;6.85;;;4.20;;
40150;SDS011;25866;52.420;10.640;2023-06-26T04:52:12;12.35;;;4.60;;
40150;SDS011;25866;52.420;10.640;2023-06-26T04:54:41;8.23;;;4.68;;
40150;SDS011;25866;52.420;10.640;2023-06-26T04:57:07;7.35;;;4.20;;
40150;SDS011;25866;52.420;10.640;2023-06-26T04:59:36;4.85;;;4.18;;
40150;SDS011;25866;52.420;10.640;2023-06-26T05:02:03;5.75;;;4.60;;
40150;SDS011;25866;52.420;10.640;2023-06-26T05:04:33;10.82;;;4.50;;
40150;SDS011;25866;52.420;10.640;2023-06-26T05:06:59;6.60;;;4.35;;
40150;SDS011;25866;52.420;10.640;2023-06-26T05:09:24;7.32;;;4.07;;
40150;SDS011;25866;52.420;10.640;2023-06-26T05:11:50;7.35;;;4.15;;
40150;SDS011;25866;52.420;10.640;2023-06-26T05:14:16;7.20;;;4.28;;
40150;SDS011;25866;52.420;10.640;2023-06-26T05:16:41;6.80;;;4.38;;
40150;SDS011;25866;52.420;10.640;2023-06-26T05:19:07;6.97;;;4.22;;
40150;SDS011;25866;52.420;10.640;2023-06-26T05:21:33;7.57;;;4.15;;
40150;SDS011;25866;52.420;10.640;2023-06-26T05:24:04;6.35;;;4.32;;
40150;SDS011;25866;52.420;10.640;2023-06-26T05:26:30;4.93;;;4.13;;
40150;SDS011;25866;52.420;10.640;2023-06-26T05:28:57;5.07;;;4.32;;
40150;SDS011;25866;52.420;10.640;2023-06-26T05:31:23;8.38;;;4.47;;
40150;SDS011;25866;52.420;10.640;2023-06-26T05:33:52;7.30;;;4.55;;
40150;SDS011;25866;52.420;10.640;2023-06-26T05:36:22;5.05;;;4.40;;
40150;SDS011;25866;52.420;10.640;2023-06-26T05:38:49;4.85;;;4.18;;
40150;SDS011;25866;52.420;10.640;2023-06-26T05:41:15;6.97;;;4.60;;
40150;SDS011;25866;52.420;10.640;2023-06-26T05:43:44;10.43;;;4.47;;
40150;SDS011;25866;52.420;10.640;2023-06-26T05:46:10;5.63;;;4.35;;
40150;SDS011;25866;52.420;10.640;2023-06-26T05:48:36;4.90;;;4.13;;
40150;SDS011;25866;52.420;10.640;2023-06-26T05:51:02;7.05;;;4.07;;
40150;SDS011;25866;52.420;10.640;2023-06-26T05:53:29;4.97;;;3.90;;
40150;SDS011;25866;52.420;10.640;2023-06-26T05:55:55;5.55;;;4.07;;
40150;SDS011;25866;52.420;10.640;2023-06-26T05:58:24;5.45;;;4.00;;
40150;SDS011;25866;52.420;10.640;2023-06-26T06:00:52;4.65;;;3.90;;
40150;SDS011;25866;52.420;10.640;2023-06-26T06:03:19;7.85;;;4.20;;
40150;SDS011;25866;52.420;10.640;2023-06-26T06:05:48;5.28;;;3.65;;
40150;SDS011;25866;52.420;10.640;2023-06-26T06:08:14;5.43;;;3.92;;
40150;SDS011;25866;52.420;10.640;2023-06-26T06:10:40;5.95;;;3.85;;
40150;SDS011;25866;52.420;10.640;2023-06-26T06:13:05;5.93;;;4.32;;
40150;SDS011;25866;52.420;10.640;2023-06-26T06:15:31;7.45;;;4.03;;
40150;SDS011;25866;52.420;10.640;2023-06-26T06:17:57;4.88;;;4.00;;
40150;SDS011;25866;52.420;10.640;2023-06-26T06:20:22;6.03;;;4.07;;
40150;SDS011;25866;52.420;10.640;2023-06-26T06:22:48;4.10;;;3.70;;
40150;SDS011;25866;52.420;10.640;2023-06-26T06:25:14;6.03;;;4.13;;
40150;SDS011;25866;52.420;10.640;2023-06-26T06:27:40;12.07;;;4.10;;
40150;SDS011;25866;52.420;10.640;2023-06-26T06:30:06;6.07;;;4.00;;
40150;SDS011;25866;52.420;10.640;2023-06-26T06:32:35;6.18;;;4.40;;
40150;SDS011;25866;52.420;10.640;2023-06-26T06:35:01;4.90;;;4.00;;
40150;SDS011;25866;52.420;10.640;2023-06-26T06:37:33;6.20;;;3.97;;
40150;SDS011;25866;52.420;10.640;2023-06-26T06:39:59;5.15;;;4.18;;
40150;SDS011;25866;52.420;10.640;2023-06-26T06:42:25;4.63;;;3.95;;
40150;SDS011;25866;52.420;10.640;2023-06-26T06:44:59;6.72;;;4.18;;
40150;SDS011;25866;52.420;10.640;2023-06-26T06:47:25;5.85;;;3.83;;
40150;SDS011;25866;52.420;10.640;2023-06-26T06:49:50;6.03;;;4.18;;
40150;SDS011;25866;52.420;10.640;2023-06-26T06:52:16;6.75;;;4.18;;
40150;SDS011;25866;52.420;10.640;2023-06-26T06:54:52;4.97;;;4.20;;
40150;SDS011;25866;52.420;10.640;2023-06-26T06:57:20;8.30;;;4.68;;
40150;SDS011;25866;52.420;10.640;2023-06-26T06:59:46;6.07;;;4.28;;
40150;SDS011;25866;52.420;10.640;2023-06-26T07:02:12;4.80;;;3.95;;
40150;SDS011;25866;52.420;10.640;2023-06-26T07:04:38;7.97;;;4.10;;
40150;SDS011;25866;52.420;10.640;2023-06-26T07:07:04;4.28;;;3.78;;
40150;SDS011;25866;52.420;10.640;2023-06-26T07:09:30;5.72;;;4.15;;
40150;SDS011;25866;52.420;10.640;2023-06-26T07:11:55;4.40;;;3.90;;
40150;SDS011;25866;52.420;10.640;2023-06-26T07:14:22;7.03;;;4.20;;
40150;SDS011;25866;52.420;10.640;2023-06-26T07:16:48;8.80;;;4.03;;
40150;SDS011;25866;52.420;10.640;2023-06-26T07:19:14;7.35;;;3.85;;
40150;SDS011;25866;52.420;10.640;2023-06-26T07:21:39;5.28;;;3.75;;
40150;SDS011;25866;52.420;10.640;2023-06-26T07:24:06;7.45;;;4.20;;
40150;SDS011;25866;52.420;10.640;2023-06-26T07:26:32;7.95;;;3.90;;
40150;SDS011;25866;52.420;10.640;2023-06-26T07:28:58;5.43;;;4.47;;
40150;SDS011;25866;52.420;10.640;2023-06-26T07:31:26;5.72;;;4.00;;
40150;SDS011;25866;52.420;10.640;2023-06-26T07:33:53;4.88;;;4.22;;
40150;SDS011;25866;52.420;10.640;2023-06-26T07:36:19;9.38;;;4.10;;
40150;SDS011;25866;52.420;10.640;2023-06-26T07:38:45;6.30;;;3.85;;
40150;SDS011;25866;52.420;10.640;2023-06-26T07:41:11;4.28;;;3.50;;
40150;SDS011;25866;52.420;10.640;2023-06-26T07:46:06;6.35;;;4.45;;
40150;SDS011;25866;52.420;10.640;2023-06-26T07:48:32;4.90;;;4.20;;
40150;SDS011;25866;52.420;10.640;2023-06-26T07:50:58;6.63;;;4.03;;
40150;SDS011;25866;52.420;10.640;2023-06-26T07:53:24;6.78;;;4.47;;
40150;SDS011;25866;52.420;10.640;2023-06-26T07:55:50;5.55;;;4.07;;
40150;SDS011;25866;52.420;10.640;2023-06-26T07:58:16;7.18;;;4.28;;
40150;SDS011;25866;52.420;10.640;2023-06-26T08:00:42;7.45;;;4.40;;
40150;SDS011;25866;52.420;10.640;2023-06-26T08:03:07;7.10;;;4.85;;
40150;SDS011;25866;52.420;10.640;2023-06-26T08:05:34;6.72;;;4.05;;
40150;SDS011;25866;52.420;10.640;2023-06-26T08:08:00;5.93;;;4.72;;
40150;SDS011;25866;52.420;10.640;2023-06-26T08:10:27;5.95;;;4.32;;
40150;SDS011;25866;52.420;10.640;2023-06-26T08:12:53;6.15;;;4.63;;
40150;SDS011;25866;52.420;10.640;2023-06-26T08:15:20;12.93;;;4.28;;
40150;SDS011;25866;52.420;10.640;2023-06-26T08:17:49;6.70;;;4.45;;
40150;SDS011;25866;52.420;10.640;2023-06-26T08:20:15;5.57;;;4.53;;
40150;SDS011;25866;52.420;10.640;2023-06-26T08:22:41;6.50;;;4.40;;
40150;SDS011;25866;52.420;10.640;2023-06-26T08:25:07;4.97;;;3.85;;
40150;SDS011;25866;52.420;10.640;2023-06-26T08:27:33;5.38;;;4.20;;
40150;SDS011;25866;52.420;10.640;2023-06-26T08:30:07;4.72;;;3.92;;
40150;SDS011;25866;52.420;10.640;2023-06-26T08:32:33;5.75;;;4.38;;
40150;SDS011;25866;52.420;10.640;2023-06-26T08:37:32;7.32;;;4.57;;
40150;SDS011;25866;52.420;10.640;2023-06-26T08:40:01;4.90;;;4.20;;
40150;SDS011;25866;52.420;10.640;2023-06-26T08:42:27;8.63;;;4.50;;
40150;SDS011;25866;52.420;10.640;2023-06-26T08:44:54;7.47;;;4.03;;
40150;SDS011;25866;52.420;10.640;2023-06-26T08:47:20;5.65;;;3.80;;
40150;SDS011;25866;52.420;10.640;2023-06-26T08:52:43;5.82;;;4.15;;
40150;SDS011;25866;52.420;10.640;2023-06-26T08:55:22;6.32;;;4.28;;
40150;SDS011;25866;52.420;10.640;2023-06-26T08:57:54;4.40;;;4.00;;
40150;SDS011;25866;52.420;10.640;2023-06-26T09:00:20;5.07;;;4.13;;
40150;SDS011;25866;52.420;10.640;2023-06-26T09:02:45;4.90;;;4.13;;
40150;SDS011;25866;52.420;10.640;2023-06-26T09:05:14;5.53;;;4.22;;
40150;SDS011;25866;52.420;10.640;2023-06-26T09:07:40;8.68;;;4.47;;
40150;SDS011;25866;52.420;10.640;2023-06-26T09:10:09;4.43;;;3.90;;
40150;SDS011;25866;52.420;10.640;2023-06-26T09:12:35;6.40;;;4.50;;
40150;SDS011;25866;52.420;10.640;2023-06-26T09:15:07;7.20;;;4.50;;
40150;SDS011;25866;52.420;10.640;2023-06-26T09:17:34;5.30;;;4.13;;
40150;SDS011;25866;52.420;10.640;2023-06-26T09:20:05;6.38;;;4.32;;
40150;SDS011;25866;52.420;10.640;2023-06-26T09:22:33;5.40;;;4.20;;
40150;SDS011;25866;52.420;10.640;2023-06-26T09:25:05;5.93;;;4.03;;
40150;SDS011;25866;52.420;10.640;2023-06-26T09:27:31;6.05;;;4.07;;
40150;SDS011;25866;52.420;10.640;2023-06-26T09:29:57;7.18;;;4.50;;
40150;SDS011;25866;52.420;10.640;2023-06-26T09:32:26;4.93;;;4.32;;
40150;SDS011;25866;52.420;10.640;2023-06-26T09:34:55;6.10;;;4.43;;
40150;SDS011;25866;52.420;10.640;2023-06-26T09:37:21;6.22;;;4.10;;
40150;SDS011;25866;52.420;10.640;2023-06-26T09:39:57;6.03;;;4.70;;
40150;SDS011;25866;52.420;10.640;2023-06-26T09:42:23;5.05;;;4.45;;
40150;SDS011;25866;52.420;10.640;2023-06-26T09:44:49;6.95;;;4.13;;
40150;SDS011;25866;52.420;10.640;2023-06-26T09:47:18;5.75;;;4.57;;
40150;SDS011;25866;52.420;10.640;2023-06-26T09:49:44;4.90;;;4.40;;
40150;SDS011;25866;52.420;10.640;2023-06-26T09:52:13;7.72;;;4.40;;
40150;SDS011;25866;52.420;10.640;2023-06-26T09:54:40;7.70;;;4.05;;
40150;SDS011;25866;52.420;10.640;2023-06-26T09:57:11;6.18;;;4.68;;
40150;SDS011;25866;52.420;10.640;2023-06-26T09:59:38;7.22;;;4.50;;
40150;SDS011;25866;52.420;10.640;2023-06-26T10:02:05;5.53;;;4.68;;
40150;SDS011;25866;52.420;10.640;2023-06-26T10:04:32;4.97;;;4.32;;
40150;SDS011;25866;52.420;10.640;2023-06-26T10:07:10;10.18;;;4.72;;
40150;SDS011;25866;52.420;10.640;2023-06-26T10:09:41;6.30;;;4.57;;
40150;SDS011;25866;52.420;10.640;2023-06-26T10:12:23;5.28;;;4.65;;
40150;SDS011;25866;52.420;10.640;2023-06-26T10:14:58;5.47;;;4.50;;
40150;SDS011;25866;52.420;10.640;2023-06-26T10:17:28;8.07;;;5.15;;
40150;SDS011;25866;52.420;10.640;2023-06-26T10:19:55;9.95;;;5.30;;
40150;SDS011;25866;52.420;10.640;2023-06-26T10:22:27;5.40;;;4.90;;
40150;SDS011;25866;52.420;10.640;2023-06-26T10:24:58;7.82;;;4.45;;
40150;SDS011;25866;52.420;10.640;2023-06-26T10:27:25;7.32;;;4.78;;
40150;SDS011;25866;52.420;10.640;2023-06-26T10:30:00;5.90;;;5.30;;
40150;SDS011;25866;52.420;10.640;2023-06-26T10:32:29;7.65;;;5.25;;
40150;SDS011;25866;52.420;10.640;2023-06-26T10:34:55;7.75;;;5.57;;
40150;SDS011;25866;52.420;10.640;2023-06-26T10:37:44;6.80;;;5.63;;
40150;SDS011;25866;52.420;10.640;2023-06-26T10:40:09;5.65;;;5.03;;
40150;SDS011;25866;52.420;10.640;2023-06-26T10:42:37;5.90;;;4.75;;
40150;SDS011;25866;52.420;10.640;2023-06-26T10:45:17;6.57;;;5.53;;
40150;SDS011;25866;52.420;10.640;2023-06-26T10:47:53;10.95;;;5.35;;
40150;SDS011;25866;52.420;10.640;2023-06-26T10:50:20;6.70;;;5.38;;
40150;SDS011;25866;52.420;10.640;2023-06-26T10:55:49;8.07;;;6.18;;
40150;SDS011;25866;52.420;10.640;2023-06-26T10:58:34;11.45;;;6.15;;
40150;SDS011;25866;52.420;10.640;2023-06-26T11:03:48;8.23;;;6.28;;
40150;SDS011;25866;52.420;10.640;2023-06-26T11:06:23;13.25;;;6.40;;
40150;SDS011;25866;52.420;10.640;2023-06-26T11:08:53;13.27;;;6.88;;
40150;SDS011;25866;52.420;10.640;2023-06-26T11:11:54;6.95;;;6.25;;
40150;SDS011;25866;52.420;10.640;2023-06-26T11:14:19;10.90;;;6.10;;
40150;SDS011;25866;52.420;10.640;2023-06-26T11:16:54;8.73;;;6.47;;
40150;SDS011;25866;52.420;10.640;2023-06-26T11:19:21;7.15;;;5.65;;
40150;SDS011;25866;52.420;10.640;2023-06-26T11:21:47;14.57;;;6.95;;
40150;SDS011;25866;52.420;10.640;2023-06-26T11:24:13;8.00;;;5.85;;
40150;SDS011;25866;52.420;10.640;2023-06-26T11:26:47;11.95;;;6.75;;
40150;SDS011;25866;52.420;10.640;2023-06-26T11:29:13;9.60;;;7.20;;
40150;SDS011;25866;52.420;10.640;2023-06-26T11:31:39;7.72;;;6.45;;
40150;SDS011;25866;52.420;10.640;2023-06-26T11:34:07;9.23;;;6.68;;
40150;SDS011;25866;52.420;10.640;2023-06-26T11:36:35;10.52;;;7.40;;
40150;SDS011;25866;52.420;10.640;2023-06-26T11:39:03;11.68;;;7.07;;
40150;SDS011;25866;52.420;10.640;2023-06-26T11:41:35;13.15;;;7.53;;
40150;SDS011;25866;52.420;10.640;2023-06-26T11:44:04;11.30;;;8.98;;
40150;SDS011;25866;52.420;10.640;2023-06-26T11:46:33;15.65;;;9.13;;
40150;SDS011;25866;52.420;10.640;2023-06-26T11:48:59;16.48;;;9.27;;
40150;SDS011;25866;52.420;10.640;2023-06-26T11:51:27;12.75;;;8.75;;
40150;SDS011;25866;52.420;10.640;2023-06-26T11:53:53;11.80;;;8.48;;
40150;SDS011;25866;52.420;10.640;2023-06-26T11:56:19;11.52;;;6.63;;
40150;SDS011;25866;52.420;10.640;2023-06-26T12:01:33;7.68;;;5.65;;
40150;SDS011;25866;52.420;10.640;2023-06-26T12:04:01;10.75;;;5.93;;
40150;SDS011;25866;52.420;10.640;2023-06-26T12:06:29;7.50;;;5.65;;
40150;SDS011;25866;52.420;10.640;2023-06-26T12:08:57;8.55;;;5.55;;
40150;SDS011;25866;52.420;10.640;2023-06-26T12:11:25;8.48;;;6.07;;
40150;SDS011;25866;52.420;10.640;2023-06-26T12:13:53;6.20;;;5.60;;
40150;SDS011;25866;52.420;10.640;2023-06-26T12:16:19;7.93;;;5.88;;
40150;SDS011;25866;52.420;10.640;2023-06-26T12:18:49;7.07;;;5.53;;
40150;SDS011;25866;52.420;10.640;2023-06-26T12:24:18;7.05;;;5.30;;
40150;SDS011;25866;52.420;10.640;2023-06-26T12:26:46;10.77;;;6.07;;
40150;SDS011;25866;52.420;10.640;2023-06-26T12:29:16;8.43;;;5.45;;
40150;SDS011;25866;52.420;10.640;2023-06-26T12:31:50;9.77;;;6.38;;
40150;SDS011;25866;52.420;10.640;2023-06-26T12:34:20;8.02;;;6.22;;
40150;SDS011;25866;52.420;10.640;2023-06-26T12:36:51;8.68;;;6.13;;
40150;SDS011;25866;52.420;10.640;2023-06-26T12:39:19;7.40;;;6.00;;
40150;SDS011;25866;52.420;10.640;2023-06-26T12:41:57;6.32;;;5.68;;
40150;SDS011;25866;52.420;10.640;2023-06-26T12:44:29;10.25;;;6.43;;
40150;SDS011;25866;52.420;10.640;2023-06-26T12:47:02;7.88;;;6.22;;
40150;SDS011;25866;52.420;10.640;2023-06-26T12:52:01;11.20;;;6.93;;
40150;SDS011;25866;52.420;10.640;2023-06-26T12:54:29;7.75;;;6.43;;
40150;SDS011;25866;52.420;10.640;2023-06-26T12:56:55;9.32;;;6.03;;
40150;SDS011;25866;52.420;10.640;2023-06-26T12:59:21;8.80;;;6.30;;
40150;SDS011;25866;52.420;10.640;2023-06-26T13:01:47;16.58;;;6.97;;
40150;SDS011;25866;52.420;10.640;2023-06-26T13:04:13;10.13;;;5.68;;
40150;SDS011;25866;52.420;10.640;2023-06-26T13:06:39;10.05;;;6.28;;
40150;SDS011;25866;52.420;10.640;2023-06-26T13:09:04;10.85;;;6.00;;
40150;SDS011;25866;52.420;10.640;2023-06-26T13:11:31;8.27;;;5.05;;
40150;SDS011;25866;52.420;10.640;2023-06-26T13:13:57;9.98;;;4.70;;
40150;SDS011;25866;52.420;10.640;2023-06-26T13:16:23;9.45;;;5.05;;
40150;SDS011;25866;52.420;10.640;2023-06-26T13:18:50;8.18;;;5.07;;
40150;SDS011;25866;52.420;10.640;2023-06-26T13:21:16;9.68;;;4.60;;
40150;SDS011;25866;52.420;10.640;2023-06-26T13:23:43;9.35;;;4.45;;
40150;SDS011;25866;52.420;10.640;2023-06-26T13:26:09;8.63;;;4.60;;
40150;SDS011;25866;52.420;10.640;2023-06-26T13:28:43;5.65;;;3.90;;
40150;SDS011;25866;52.420;10.640;2023-06-26T13:31:09;5.07;;;4.35;;
40150;SDS011;25866;52.420;10.640;2023-06-26T13:33:34;6.68;;;3.92;;
40150;SDS011;25866;52.420;10.640;2023-06-26T13:36:00;7.15;;;3.80;;
40150;SDS011;25866;52.420;10.640;2023-06-26T13:38:32;8.30;;;4.05;;
40150;SDS011;25866;52.420;10.640;2023-06-26T13:40:59;7.80;;;3.95;;
40150;SDS011;25866;52.420;10.640;2023-06-26T13:43:25;8.50;;;3.67;;
40150;SDS011;25866;52.420;10.640;2023-06-26T13:45:52;5.85;;;3.65;;
40150;SDS011;25866;52.420;10.640;2023-06-26T13:50:49;5.28;;;3.20;;
40150;SDS011;25866;52.420;10.640;2023-06-26T13:53:16;4.88;;;3.35;;
40150;SDS011;25866;52.420;10.640;2023-06-26T13:55:42;5.75;;;3.28;;
40150;SDS011;25866;52.420;10.640;2023-06-26T13:58:08;8.88;;;3.40;;
40150;SDS011;25866;52.420;10.640;2023-06-26T14:00:36;6.00;;;3.40;;
40150;SDS011;25866;52.420;10.640;2023-06-26T14:03:03;7.68;;;3.38;;
40150;SDS011;25866;52.420;10.640;2023-06-26T14:05:31;11.15;;;3.35;;
40150;SDS011;25866;52.420;10.640;2023-06-26T14:08:01;6.28;;;3.42;;
40150;SDS011;25866;52.420;10.640;2023-06-26T14:10:29;5.65;;;3.03;;
40150;SDS011;25866;52.420;10.640;2023-06-26T14:12:55;6.03;;;2.92;;
40150;SDS011;25866;52.420;10.640;2023-06-26T14:15:20;6.45;;;2.97;;
40150;SDS011;25866;52.420;10.640;2023-06-26T14:17:46;8.27;;;3.30;;
40150;SDS011;25866;52.420;10.640;2023-06-26T14:20:17;4.82;;;2.85;;
40150;SDS011;25866;52.420;10.640;2023-06-26T14:22:44;8.32;;;3.05;;
40150;SDS011;25866;52.420;10.640;2023-06-26T14:25:10;4.68;;;2.65;;
40150;SDS011;25866;52.420;10.640;2023-06-26T14:27:37;5.30;;;2.85;;
40150;SDS011;25866;52.420;10.640;2023-06-26T14:30:05;4.30;;;2.50;;
40150;SDS011;25866;52.420;10.640;2023-06-26T14:32:32;9.38;;;3.78;;
40150;SDS011;25866;52.420;10.640;2023-06-26T14:35:01;5.68;;;3.00;;
40150;SDS011;25866;52.420;10.640;2023-06-26T14:37:28;7.70;;;2.95;;
40150;SDS011;25866;52.420;10.640;2023-06-26T14:39:56;5.85;;;2.88;;
40150;SDS011;25866;52.420;10.640;2023-06-26T14:42:22;6.85;;;2.75;;
40150;SDS011;25866;52.420;10.640;2023-06-26T14:44:48;5.57;;;2.45;;
40150;SDS011;25866;52.420;10.640;2023-06-26T14:47:18;8.65;;;3.22;;
40150;SDS011;25866;52.420;10.640;2023-06-26T14:49:45;7.45;;;2.47;;
40150;SDS011;25866;52.420;10.640;2023-06-26T14:52:11;5.70;;;2.50;;
40150;SDS011;25866;52.420;10.640;2023-06-26T14:54:37;4.85;;;2.30;;
40150;SDS011;25866;52.420;10.640;2023-06-26T14:57:04;4.28;;;2.25;;
40150;SDS011;25866;52.420;10.640;2023-06-26T14:59:35;9.60;;;1.98;;
40150;SDS011;25866;52.420;10.640;2023-06-26T15:02:00;7.50;;;2.38;;
40150;SDS011;25866;52.420;10.640;2023-06-26T15:04:27;5.00;;;2.30;;